Time;durP1;ratioP1;P1;durP2;ratioP2;P2;SDS_P1;SDS_P2;PMS_P1;PMS_P2;Temp;Humidity;BMP_temperature;BMP_pressure;BME280_temperature;BME280_humidity;BME280_pressure;Samples;Min_cycle;Max_cycle;Signal;HPM_P1;HPM_P2
2022/11/19 00:01:03;;;;;;;12.97;7.87;;;-1.40;99.90;;;;;;5010171;28;20230;-75
2022/11/19 00:03:33;;;;;;;9.33;6.90;;;-1.40;99.90;;;;;;4990908;28;20567;-73
2022/11/19 00:06:05;;;;;;;9.50;7.23;;;-1.40;99.90;;;;;;4991047;28;20596;-74
2022/11/19 00:08:32;;;;;;;9.07;6.90;;;-1.40;99.90;;;;;;5001395;28;20211;-74
2022/11/19 00:11:05;;;;;;;10.13;7.13;;;-1.40;99.90;;;;;;5010208;28;20219;-73
2022/11/19 00:13:31;;;;;;;9.93;7.27;;;-1.40;99.90;;;;;;4998545;28;20210;-75
2022/11/19 00:16:03;;;;;;;11.80;7.03;;;-1.40;99.90;;;;;;4989641;28;20689;-72
2022/11/19 00:18:30;;;;;;;11.60;7.47;;;-1.40;99.90;;;;;;4995717;28;20212;-74
2022/11/19 00:21:04;;;;;;;13.13;8.30;;;-1.40;99.90;;;;;;5010732;28;20359;-72
2022/11/19 00:23:31;;;;;;;9.40;7.13;;;-1.40;99.90;;;;;;4993869;28;20214;-72
2022/11/19 00:26:07;;;;;;;10.93;7.97;;;-1.40;99.90;;;;;;4995765;28;20232;-72
2022/11/19 00:28:34;;;;;;;9.13;6.70;;;-1.50;99.90;;;;;;5005496;28;20207;-73
2022/11/19 00:31:05;;;;;;;10.90;7.30;;;-1.60;99.90;;;;;;5002264;28;20216;-71
2022/11/19 00:33:32;;;;;;;9.57;6.90;;;-1.50;99.90;;;;;;4989415;28;20672;-72
2022/11/19 00:36:00;;;;;;;11.17;7.87;;;-1.50;99.90;;;;;;4990702;28;20204;-74
2022/11/19 00:38:30;;;;;;;8.63;6.80;;;-1.50;99.90;;;;;;4989529;28;20216;-75
2022/11/19 00:40:57;;;;;;;11.17;7.37;;;-1.50;99.90;;;;;;4988493;28;20219;-74
2022/11/19 00:46:08;;;;;;;11.43;7.40;;;-1.50;99.90;;;;;;4986407;28;20568;-75
2022/11/19 00:48:34;;;;;;;11.03;7.37;;;-1.50;99.90;;;;;;4995968;28;20222;-73
2022/11/19 00:51:01;;;;;;;10.53;7.47;;;-1.40;99.90;;;;;;5008696;28;20207;-74
2022/11/19 00:53:29;;;;;;;10.93;7.37;;;-1.50;99.90;;;;;;4994582;28;20589;-74
2022/11/19 00:56:00;;;;;;;10.77;7.57;;;-1.50;99.90;;;;;;5000933;28;20655;-74
2022/11/19 00:58:27;;;;;;;11.13;7.63;;;-1.60;99.90;;;;;;4990125;28;20211;-73
2022/11/19 01:00:54;;;;;;;12.87;8.17;;;-1.60;99.90;;;;;;5006690;28;20326;-73
2022/11/19 01:03:21;;;;;;;9.97;7.40;;;-1.50;99.90;;;;;;4993905;28;20216;-74
2022/11/19 01:05:48;;;;;;;11.00;7.93;;;-1.50;99.90;;;;;;4990284;28;20603;-73
2022/11/19 01:08:14;;;;;;;11.57;7.00;;;-1.50;99.90;;;;;;4997728;28;20214;-73
2022/11/19 01:10:43;;;;;;;12.03;7.83;;;-1.50;99.90;;;;;;5007773;28;20215;-72
2022/11/19 01:15:55;;;;;;;8.70;6.93;;;-1.50;99.90;;;;;;4986903;28;20254;-74
2022/11/19 01:18:21;;;;;;;10.07;7.40;;;-1.50;99.90;;;;;;4996112;28;20578;-74
2022/11/19 01:20:48;;;;;;;9.13;6.93;;;-1.50;99.90;;;;;;5009910;28;20689;-74
2022/11/19 01:23:15;;;;;;;11.50;7.50;;;-1.50;99.90;;;;;;4993962;28;20223;-72
2022/11/19 01:25:43;;;;;;;11.80;7.47;;;-1.40;99.90;;;;;;5005278;28;20732;-73
2022/11/19 01:28:10;;;;;;;10.77;7.27;;;-1.40;99.90;;;;;;4988457;28;20246;-75
2022/11/19 01:30:41;;;;;;;10.30;6.97;;;-1.40;99.90;;;;;;5009741;28;20203;-74
2022/11/19 01:33:08;;;;;;;9.33;6.63;;;-1.40;99.90;;;;;;5006307;28;20784;-74
2022/11/19 01:35:35;;;;;;;11.63;7.90;;;-1.40;99.90;;;;;;5008390;28;20250;-74
2022/11/19 01:38:02;;;;;;;9.50;7.13;;;-1.40;99.90;;;;;;4998500;28;20215;-74
2022/11/19 01:40:29;;;;;;;9.97;7.63;;;-1.40;99.90;;;;;;5003587;28;20211;-73
2022/11/19 01:42:57;;;;;;;11.97;7.67;;;-1.40;99.90;;;;;;4988459;28;20653;-73
2022/11/19 01:45:30;;;;;;;10.13;7.20;;;-1.40;99.90;;;;;;5005367;28;20255;-72
2022/11/19 01:48:00;;;;;;;10.83;7.20;;;-1.40;99.90;;;;;;4979018;28;20204;-74
2022/11/19 01:50:29;;;;;;;11.30;7.57;;;-1.40;99.90;;;;;;4990336;28;20204;-72
2022/11/19 01:52:56;;;;;;;10.30;7.60;;;-1.40;99.90;;;;;;4994109;28;20203;-73
2022/11/19 01:55:23;;;;;;;9.53;7.40;;;-1.40;99.90;;;;;;5003693;28;20648;-73
2022/11/19 01:57:55;;;;;;;10.67;7.50;;;-1.50;99.90;;;;;;5009444;28;20208;-72
2022/11/19 02:00:23;;;;;;;11.60;7.53;;;-1.50;99.90;;;;;;4995476;28;20232;-74
2022/11/19 02:02:50;;;;;;;10.33;7.37;;;-1.40;99.90;;;;;;4990253;28;20712;-71
2022/11/19 02:05:18;;;;;;;10.27;7.37;;;-1.40;99.90;;;;;;4993253;28;20597;-73
2022/11/19 02:07:49;;;;;;;10.13;7.47;;;-1.50;99.90;;;;;;5004861;28;20208;-75
2022/11/19 02:10:16;;;;;;;11.43;7.20;;;-1.50;99.90;;;;;;5011205;28;20213;-72
2022/11/19 02:12:47;;;;;;;12.33;7.37;;;-1.40;99.90;;;;;;5012421;28;20215;-72
2022/11/19 02:15:30;;;;;;;11.90;8.00;;;-1.40;99.90;;;;;;4994175;28;20208;-71
2022/11/19 02:18:10;;;;;;;9.03;7.37;;;-1.40;99.90;;;;;;4995561;28;20216;-74
2022/11/19 02:21:09;;;;;;;9.57;6.97;;;-1.30;99.90;;;;;;4987637;28;20702;-73
2022/11/19 02:23:59;;;;;;;10.67;7.30;;;-1.30;99.90;;;;;;4990920;28;20214;-74
2022/11/19 02:26:51;;;;;;;9.60;7.23;;;-1.20;99.90;;;;;;5010147;28;20215;-75
2022/11/19 02:29:43;;;;;;;10.60;8.00;;;-1.20;99.90;;;;;;5010162;28;20696;-73
2022/11/19 02:32:14;;;;;;;10.20;7.10;;;-1.20;99.90;;;;;;5011434;28;20199;-72
2022/11/19 02:34:47;;;;;;;11.13;7.93;;;-1.20;99.90;;;;;;4993060;28;20216;-74
2022/11/19 02:37:16;;;;;;;11.17;7.57;;;-1.20;99.90;;;;;;5005687;28;20204;-72
2022/11/19 02:39:50;;;;;;;9.90;7.20;;;-1.20;99.90;;;;;;5003914;28;20212;-74
2022/11/19 02:42:21;;;;;;;9.67;7.20;;;-1.20;99.90;;;;;;4995670;28;20587;-73
2022/11/19 02:45:00;;;;;;;9.83;7.03;;;-1.20;99.90;;;;;;5002626;28;20214;-74
2022/11/19 02:47:30;;;;;;;11.63;7.33;;;-1.30;99.90;;;;;;4992290;28;20200;-73
2022/11/19 02:50:01;;;;;;;11.97;8.07;;;-1.30;99.90;;;;;;4996120;28;20215;-75
2022/11/19 02:52:28;;;;;;;12.17;8.00;;;-1.30;99.90;;;;;;5001690;28;20211;-71
2022/11/19 02:54:55;;;;;;;12.07;7.60;;;-1.30;99.90;;;;;;4999272;28;20207;-74
2022/11/19 02:57:22;;;;;;;10.10;7.23;;;-1.20;99.90;;;;;;4993855;28;20215;-72
2022/11/19 03:05:33;;;;;;;8.90;7.10;;;-1.20;99.90;;;;;;4999276;28;20218;-72
2022/11/19 03:08:00;;;;;;;8.53;6.53;;;-1.30;99.90;;;;;;5010824;28;20203;-72
2022/11/19 03:10:32;;;;;;;11.40;7.23;;;-1.20;99.90;;;;;;4999978;28;20235;-73
2022/11/19 03:16:40;;;;;;;11.07;7.77;;;-1.20;99.90;;;;;;4991195;28;20247;-74
2022/11/19 03:18:48;;;;;;;10.20;7.57;;;-1.20;99.90;;;;;;4997780;28;20211;-73
2022/11/19 03:21:22;;;;;;;9.50;6.77;;;-1.20;99.90;;;;;;4991167;28;20551;-74
2022/11/19 03:23:55;;;;;;;11.53;8.10;;;-1.20;99.90;;;;;;4995426;28;20203;-74
2022/11/19 03:26:28;;;;;;;11.10;7.67;;;-1.20;99.90;;;;;;5007810;28;20236;-74
2022/11/19 03:28:57;;;;;;;11.13;8.00;;;-1.20;99.90;;;;;;4984703;28;20656;-75
2022/11/19 03:31:28;;;;;;;9.87;7.23;;;-1.30;99.90;;;;;;5005394;28;20212;-76
2022/11/19 03:33:58;;;;;;;12.00;7.63;;;-1.20;99.90;;;;;;5005193;28;20203;-75
2022/11/19 03:36:30;;;;;;;11.33;7.97;;;-1.20;99.90;;;;;;5000885;28;20219;-74
2022/11/19 03:39:01;;;;;;;10.03;7.43;;;-1.20;99.90;;;;;;4996861;28;20203;-74
2022/11/19 03:41:30;;;;;;;9.10;6.97;;;-1.10;99.90;;;;;;5001035;28;20296;-73
2022/11/19 03:44:03;;;;;;;9.50;6.80;;;-1.10;99.90;;;;;;5003714;28;20652;-75
2022/11/19 03:46:35;;;;;;;11.30;6.97;;;-1.00;99.90;;;;;;4983574;28;20228;-74
2022/11/19 03:49:03;;;;;;;10.40;7.13;;;-1.00;99.90;;;;;;5010135;28;20206;-72
2022/11/19 03:51:37;;;;;;;11.30;7.47;;;-1.00;99.90;;;;;;5011020;28;20209;-71
2022/11/19 03:54:04;;;;;;;10.83;7.70;;;-0.90;99.90;;;;;;4995456;28;20211;-74
2022/11/19 03:56:33;;;;;;;10.97;7.47;;;-0.90;99.90;;;;;;5001796;28;20576;-73
2022/11/19 03:59:00;;;;;;;10.33;7.23;;;-0.90;99.90;;;;;;5011312;28;20211;-72
2022/11/19 04:01:27;;;;;;;11.67;8.23;;;-0.80;99.90;;;;;;5003686;28;20215;-74
2022/11/19 04:06:48;;;;;;;10.17;7.10;;;-0.80;99.90;;;;;;4983704;28;20704;-73
2022/11/19 04:09:14;;;;;;;9.57;7.23;;;-0.80;99.90;;;;;;5004024;28;20212;-70
2022/11/19 04:11:42;;;;;;;11.43;7.77;;;-0.80;99.90;;;;;;5010740;28;20214;-73
2022/11/19 04:14:09;;;;;;;9.60;7.77;;;-0.90;99.90;;;;;;4999200;28;20211;-73
2022/11/19 04:16:36;;;;;;;12.87;7.93;;;-0.90;99.90;;;;;;5008708;28;20208;-73
2022/11/19 04:19:04;;;;;;;11.83;8.17;;;-0.90;99.90;;;;;;4999186;28;20226;-74
2022/11/19 04:21:31;;;;;;;13.53;8.53;;;-0.90;99.90;;;;;;4995613;28;20223;-73
2022/11/19 04:23:58;;;;;;;12.23;8.20;;;-0.90;99.90;;;;;;4988876;28;20697;-73
2022/11/19 04:26:26;;;;;;;13.40;8.40;;;-0.90;99.90;;;;;;5014068;28;20215;-76
2022/11/19 04:28:53;;;;;;;12.20;8.23;;;-0.90;99.90;;;;;;4978365;28;20254;-75
2022/11/19 04:31:19;;;;;;;12.83;8.37;;;-1.00;99.90;;;;;;4995909;28;20611;-74
2022/11/19 04:33:46;;;;;;;12.93;8.90;;;-1.00;99.90;;;;;;4993868;28;20218;-73
2022/11/19 04:36:14;;;;;;;11.10;8.30;;;-1.10;99.90;;;;;;5001523;28;20659;-72
2022/11/19 04:38:41;;;;;;;11.47;8.10;;;-1.00;99.90;;;;;;4997122;28;20579;-75
2022/11/19 04:41:08;;;;;;;12.77;8.50;;;-1.00;99.90;;;;;;5009742;28;20207;-73
2022/11/19 04:43:35;;;;;;;10.80;8.70;;;-1.00;99.90;;;;;;5000398;28;20641;-74
2022/11/19 04:46:02;;;;;;;12.23;8.23;;;-1.20;99.90;;;;;;5011038;28;20591;-73
2022/11/19 04:48:29;;;;;;;11.70;8.60;;;-1.10;99.90;;;;;;5010906;28;20215;-73
2022/11/19 04:50:55;;;;;;;12.63;8.43;;;-1.00;99.90;;;;;;5010963;28;20203;-74
2022/11/19 04:53:24;;;;;;;11.80;8.70;;;-1.10;99.90;;;;;;4992662;28;20207;-73
2022/11/19 04:55:50;;;;;;;15.13;9.17;;;-1.10;99.90;;;;;;4996081;28;20203;-72
2022/11/19 04:58:17;;;;;;;12.23;9.10;;;-1.10;99.90;;;;;;5010380;28;20213;-72
2022/11/19 05:00:49;;;;;;;11.90;8.80;;;-1.10;99.90;;;;;;5013978;28;20238;-76
2022/11/19 05:03:16;;;;;;;14.33;9.33;;;-1.00;99.90;;;;;;5014409;28;20668;-74
2022/11/19 05:05:43;;;;;;;11.27;8.13;;;-0.70;99.90;;;;;;5000716;28;20235;-77
2022/11/19 05:08:10;;;;;;;13.00;9.40;;;-1.00;99.90;;;;;;5003179;28;20274;-74
2022/11/19 05:10:40;;;;;;;12.70;9.50;;;-1.00;99.90;;;;;;5004115;28;20223;-77
2022/11/19 05:13:07;;;;;;;14.37;9.87;;;-1.00;99.90;;;;;;4997292;28;20211;-73
2022/11/19 05:15:34;;;;;;;12.00;8.90;;;-1.00;99.90;;;;;;5018829;28;20211;-75
2022/11/19 05:18:00;;;;;;;14.50;9.67;;;-1.00;99.90;;;;;;4995668;28;20216;-74
2022/11/19 05:20:27;;;;;;;15.10;9.70;;;-1.00;99.90;;;;;;4994602;28;20208;-71
2022/11/19 05:22:54;;;;;;;16.23;11.57;;;-1.00;99.90;;;;;;4996478;28;20261;-74
2022/11/19 05:25:21;;;;;;;13.23;9.40;;;-1.00;99.90;;;;;;5005528;28;20247;-72
2022/11/19 05:27:49;;;;;;;12.10;8.53;;;-1.00;99.90;;;;;;4995876;28;20232;-73
2022/11/19 05:30:16;;;;;;;11.97;8.87;;;-1.00;99.90;;;;;;4993418;28;20206;-73
2022/11/19 05:32:43;;;;;;;12.40;8.63;;;-1.00;99.90;;;;;;4992212;28;20576;-73
2022/11/19 05:35:10;;;;;;;14.07;9.73;;;-1.00;99.90;;;;;;5006163;28;20207;-75
2022/11/19 05:37:37;;;;;;;14.10;9.73;;;-1.00;99.90;;;;;;5005989;28;20212;-73
2022/11/19 05:40:05;;;;;;;12.03;9.30;;;-1.00;99.90;;;;;;4990651;28;20249;-73
2022/11/19 05:42:32;;;;;;;12.40;8.87;;;-1.10;99.90;;;;;;4988427;28;20665;-74
2022/11/19 05:45:00;;;;;;;13.83;9.40;;;-1.10;99.90;;;;;;4992473;28;20298;-72
2022/11/19 05:47:27;;;;;;;12.90;10.00;;;-1.10;99.90;;;;;;5000474;28;20675;-73
2022/11/19 05:49:54;;;;;;;14.57;9.07;;;-1.10;99.90;;;;;;5002799;28;20208;-73
2022/11/19 05:52:20;;;;;;;12.93;9.33;;;-0.50;99.90;;;;;;5002867;28;20219;-72
2022/11/19 05:54:47;;;;;;;16.00;10.20;;;-1.10;99.90;;;;;;4994986;28;20228;-74
2022/11/19 05:57:14;;;;;;;13.27;9.60;;;-1.10;99.90;;;;;;4995222;28;20208;-74
2022/11/19 05:59:41;;;;;;;15.80;10.43;;;-1.00;99.90;;;;;;5013980;28;20238;-74
2022/11/19 06:02:09;;;;;;;14.90;10.43;;;-1.00;99.90;;;;;;4995013;28;20219;-73
2022/11/19 06:04:36;;;;;;;16.77;10.73;;;-1.00;99.90;;;;;;4994831;28;20552;-76
2022/11/19 06:07:02;;;;;;;18.60;10.73;;;-1.00;99.90;;;;;;5006086;28;20235;-74
2022/11/19 06:09:29;;;;;;;14.90;10.33;;;-1.00;99.90;;;;;;5013026;28;20213;-76
2022/11/19 06:11:56;;;;;;;14.33;10.33;;;-0.90;99.90;;;;;;5004598;28;20216;-75
2022/11/19 06:14:25;;;;;;;16.30;11.00;;;-0.90;99.90;;;;;;5009041;28;20214;-74
2022/11/19 06:16:53;;;;;;;16.20;10.43;;;-0.90;99.90;;;;;;4998660;28;20216;-72
2022/11/19 06:19:21;;;;;;;13.43;10.33;;;-0.90;99.90;;;;;;5001152;28;20211;-73
2022/11/19 06:21:49;;;;;;;19.57;11.63;;;-0.90;99.90;;;;;;5005377;28;20203;-71
2022/11/19 06:24:16;;;;;;;14.73;11.20;;;-0.90;99.90;;;;;;4990306;28;20652;-71
2022/11/19 06:26:43;;;;;;;16.17;11.43;;;-0.90;99.90;;;;;;4996796;28;20684;-71
2022/11/19 06:29:11;;;;;;;19.23;11.53;;;-0.80;99.90;;;;;;5004989;28;20204;-72
2022/11/19 06:31:38;;;;;;;17.17;11.67;;;-0.80;99.90;;;;;;4993384;28;20232;-72
2022/11/19 06:34:05;;;;;;;16.90;11.53;;;-0.80;99.90;;;;;;4995161;28;20204;-73
2022/11/19 06:36:33;;;;;;;20.37;11.40;;;-0.80;99.90;;;;;;5004680;28;20215;-73
2022/11/19 06:39:00;;;;;;;20.37;12.30;;;-0.70;99.90;;;;;;4996130;28;20208;-74
2022/11/19 06:41:27;;;;;;;20.53;12.83;;;-0.70;99.90;;;;;;5004162;28;20211;-69
2022/11/19 06:43:54;;;;;;;17.90;12.33;;;-0.70;99.90;;;;;;5000336;28;20222;-75
2022/11/19 06:46:20;;;;;;;20.90;13.20;;;-0.70;99.90;;;;;;5004215;28;20242;-75
2022/11/19 06:48:47;;;;;;;18.93;11.67;;;-0.70;99.90;;;;;;4994648;28;20640;-73
2022/11/19 06:51:14;;;;;;;20.07;12.53;;;-0.70;99.90;;;;;;4994155;28;20227;-73
2022/11/19 06:53:42;;;;;;;20.30;12.97;;;-0.60;99.90;;;;;;4990985;28;20216;-73
2022/11/19 06:56:09;;;;;;;17.80;12.67;;;-0.70;99.90;;;;;;4998410;28;20206;-73
2022/11/19 06:58:36;;;;;;;18.90;12.97;;;-0.60;99.90;;;;;;5012547;28;20218;-73
2022/11/19 07:01:03;;;;;;;19.13;12.87;;;-0.60;99.90;;;;;;5012689;28;20310;-72
2022/11/19 07:03:30;;;;;;;16.23;12.07;;;-0.60;99.90;;;;;;5000073;28;20665;-72
2022/11/19 07:05:59;;;;;;;17.50;11.60;;;-0.70;99.90;;;;;;4994357;28;20200;-72
2022/11/19 07:08:26;;;;;;;18.53;11.37;;;-0.70;99.90;;;;;;5005866;28;20232;-72
2022/11/19 07:10:55;;;;;;;17.63;11.10;;;-0.60;99.90;;;;;;4991661;28;20208;-75
2022/11/19 07:13:22;;;;;;;15.77;10.93;;;-0.70;99.90;;;;;;4994425;28;20485;-72
2022/11/19 07:15:49;;;;;;;17.67;11.90;;;-0.70;99.90;;;;;;5000924;28;20211;-73
2022/11/19 07:18:16;;;;;;;18.13;12.53;;;-0.70;99.90;;;;;;4998825;28;20200;-71
2022/11/19 07:20:45;;;;;;;19.80;12.23;;;-0.80;99.90;;;;;;5012652;28;20306;-72
2022/11/19 07:23:12;;;;;;;19.30;12.37;;;-0.80;99.90;;;;;;4999201;28;20243;-74
2022/11/19 07:25:38;;;;;;;17.07;12.03;;;-0.80;99.90;;;;;;4999092;28;20238;-73
2022/11/19 07:28:08;;;;;;;18.23;12.00;;;-0.80;99.90;;;;;;5012964;28;20242;-74
2022/11/19 07:30:35;;;;;;;18.37;11.67;;;-0.80;99.90;;;;;;5004768;28;20209;-73
2022/11/19 07:33:02;;;;;;;17.30;11.73;;;-0.90;99.90;;;;;;4990143;28;20216;-69
2022/11/19 07:35:28;;;;;;;17.83;12.00;;;-0.90;99.90;;;;;;4994302;28;20211;-69
2022/11/19 07:37:55;;;;;;;17.97;11.77;;;-0.90;99.90;;;;;;4994517;28;20196;-71
2022/11/19 07:40:22;;;;;;;19.73;12.63;;;-1.00;99.90;;;;;;4994367;28;20659;-70
2022/11/19 07:42:48;;;;;;;18.83;12.40;;;-1.00;99.90;;;;;;4993071;28;20203;-70
2022/11/19 07:45:17;;;;;;;19.67;12.17;;;-1.00;99.90;;;;;;4994048;28;20735;-72
2022/11/19 07:47:46;;;;;;;20.03;12.03;;;-1.00;99.90;;;;;;4993416;28;20228;-70
2022/11/19 07:50:13;;;;;;;18.03;12.33;;;-1.00;99.90;;;;;;4996949;28;20254;-71
2022/11/19 07:52:40;;;;;;;18.70;11.73;;;-1.00;99.90;;;;;;4993346;28;20208;-70
2022/11/19 07:55:08;;;;;;;18.03;11.97;;;-1.00;99.90;;;;;;4994377;28;20222;-70
2022/11/19 07:57:35;;;;;;;18.90;11.80;;;-0.90;99.90;;;;;;4986287;28;20590;-71
2022/11/19 08:00:02;;;;;;;19.40;13.20;;;-0.90;99.90;;;;;;4994495;28;20227;-69
2022/11/19 08:02:30;;;;;;;17.50;11.13;;;-0.80;99.90;;;;;;4990875;28;20688;-71
2022/11/19 08:04:57;;;;;;;19.10;12.03;;;-0.80;99.90;;;;;;4990480;28;20200;-71
2022/11/19 08:07:24;;;;;;;18.23;12.50;;;-0.70;99.90;;;;;;4994365;28;21469;-70
2022/11/19 08:09:50;;;;;;;20.33;12.83;;;-0.60;99.90;;;;;;4996736;28;20322;-72
2022/11/19 08:12:17;;;;;;;19.83;13.00;;;-0.60;99.90;;;;;;5000690;28;20235;-69
2022/11/19 08:14:44;;;;;;;18.30;13.27;;;-0.50;99.90;;;;;;4995514;28;20200;-68
2022/11/19 08:19:57;;;;;;;18.63;11.03;;;-0.40;99.90;;;;;;5010453;28;20580;-67
2022/11/19 08:22:23;;;;;;;17.67;11.80;;;-0.30;99.90;;;;;;4997894;28;20569;-68
2022/11/19 08:24:50;;;;;;;16.53;11.20;;;-0.30;99.90;;;;;;4992152;28;20227;-69
2022/11/19 08:27:17;;;;;;;14.73;10.43;;;-0.20;99.90;;;;;;5007890;28;20603;-69
2022/11/19 08:29:44;;;;;;;14.93;10.80;;;0.00;99.90;;;;;;5016137;28;20227;-68
2022/11/19 08:32:11;;;;;;;17.23;11.33;;;0.00;99.90;;;;;;4999777;28;20204;-69
2022/11/19 08:34:38;;;;;;;16.77;11.27;;;0.10;99.90;;;;;;4985607;28;20599;-67
2022/11/19 08:37:06;;;;;;;13.67;10.67;;;0.30;99.90;;;;;;4987509;28;20218;-70
2022/11/19 08:39:33;;;;;;;16.27;11.40;;;0.50;99.90;;;;;;4990600;28;20625;-67
2022/11/19 08:44:44;;;;;;;16.80;11.03;;;1.00;99.90;;;;;;5022747;28;20210;-72
2022/11/19 08:47:11;;;;;;;13.17;9.87;;;1.40;99.90;;;;;;5030098;28;20215;-68
2022/11/19 08:49:38;;;;;;;15.40;10.43;;;1.90;99.90;;;;;;4993651;28;20219;-70
2022/11/19 08:52:06;;;;;;;13.77;9.47;;;2.10;99.90;;;;;;5007044;28;20195;-71
2022/11/19 08:54:33;;;;;;;11.93;8.77;;;2.40;99.90;;;;;;5014196;28;20305;-71
2022/11/19 08:57:00;;;;;;;12.67;9.20;;;2.70;99.90;;;;;;5011289;28;20210;-70
2022/11/19 08:59:27;;;;;;;10.63;8.07;;;2.90;99.90;;;;;;5009689;28;20631;-67
2022/11/19 09:01:53;;;;;;;13.10;9.13;;;2.80;99.90;;;;;;5008140;28;20215;-70
2022/11/19 09:04:20;;;;;;;13.37;8.87;;;2.70;99.90;;;;;;5003799;28;20294;-71
2022/11/19 09:06:47;;;;;;;12.83;9.13;;;2.60;99.90;;;;;;4997235;28;20216;-67
2022/11/19 09:09:15;;;;;;;12.13;9.40;;;2.50;99.90;;;;;;5009643;28;20218;-69
2022/11/19 09:11:42;;;;;;;14.40;10.50;;;2.40;99.90;;;;;;5022280;28;20208;-72
2022/11/19 09:14:09;;;;;;;13.93;10.47;;;2.20;99.90;;;;;;5020539;28;20216;-71
2022/11/19 09:16:36;;;;;;;15.90;11.03;;;2.10;99.90;;;;;;5012752;28;20334;-69
2022/11/19 09:19:02;;;;;;;14.73;10.63;;;2.00;99.90;;;;;;5023948;28;20452;-71
2022/11/19 09:21:29;;;;;;;14.67;10.80;;;1.90;99.90;;;;;;5024272;28;20252;-72
2022/11/19 09:23:56;;;;;;;15.50;10.53;;;1.80;99.90;;;;;;5019629;28;20235;-71
2022/11/19 09:26:24;;;;;;;15.63;10.00;;;1.70;99.90;;;;;;5017914;28;20208;-71
2022/11/19 09:28:51;;;;;;;14.13;10.30;;;1.60;99.90;;;;;;5017219;28;20226;-71
2022/11/19 09:31:20;;;;;;;13.33;9.40;;;1.80;99.90;;;;;;5016836;28;20202;-71
2022/11/19 09:33:49;;;;;;;14.00;9.37;;;1.60;99.90;;;;;;5014180;28;20207;-70
2022/11/19 09:36:18;;;;;;;13.70;9.20;;;1.90;99.90;;;;;;5015058;28;20254;-70
2022/11/19 09:38:45;;;;;;;12.53;9.00;;;2.20;99.90;;;;;;5015585;28;20280;-68
2022/11/19 09:41:36;;;;;;;13.67;9.00;;;2.10;99.90;;;;;;5016079;28;20228;-70
2022/11/19 09:44:16;;;;;;;11.47;8.50;;;2.20;99.90;;;;;;5016153;28;20211;-70
2022/11/19 09:46:53;;;;;;;11.93;8.67;;;2.20;99.90;;;;;;5008999;28;20223;-70
2022/11/19 09:49:28;;;;;;;12.90;8.83;;;2.30;99.90;;;;;;5015216;28;20204;-72
2022/11/19 09:52:01;;;;;;;11.73;8.03;;;2.70;99.90;;;;;;5008367;28;20203;-70
2022/11/19 09:54:28;;;;;;;13.47;8.83;;;2.70;99.90;;;;;;5010797;28;20196;-73
2022/11/19 09:56:59;;;;;;;12.33;9.20;;;2.30;99.90;;;;;;5012482;28;20212;-69
2022/11/19 09:59:32;;;;;;;12.93;9.00;;;2.00;99.90;;;;;;5011866;28;20228;-71
2022/11/19 10:01:59;;;;;;;14.50;9.77;;;1.90;99.90;;;;;;5010902;28;20207;-68
2022/11/19 10:04:29;;;;;;;12.90;9.67;;;1.90;99.90;;;;;;5008317;28;20212;-67
2022/11/19 10:07:09;;;;;;;12.73;9.30;;;2.00;99.90;;;;;;5013129;28;20210;-69
2022/11/19 10:09:56;;;;;;;12.98;10.75;;;2.70;99.90;;;;;;5004842;28;20444;-65
2022/11/19 10:12:39;;;;;;;11.70;9.30;;;5.60;99.90;;;;;;5003268;28;20222;-67
2022/11/19 10:15:16;;;;;;;10.87;8.40;;;9.30;99.90;;;;;;4990408;28;20214;-70
2022/11/19 10:17:55;;;;;;;9.77;7.90;;;12.70;96.60;;;;;;5002456;28;20515;-73
2022/11/19 10:20:39;;;;;;;8.87;6.83;;;15.60;78.60;;;;;;4994895;28;20208;-72
2022/11/19 10:23:14;;;;;;;7.77;6.70;;;18.10;59.30;;;;;;4988995;28;20781;-70
2022/11/19 10:25:45;;;;;;;7.70;6.50;;;18.90;48.00;;;;;;4995884;28;20243;-70
2022/11/19 10:28:15;;;;;;;8.57;7.47;;;17.70;42.60;;;;;;4993817;28;20591;-72
2022/11/19 10:30:48;;;;;;;9.17;6.90;;;15.50;43.30;;;;;;4981188;28;20244;-73
2022/11/19 10:33:21;;;;;;;7.90;6.53;;;13.40;44.30;;;;;;4995217;28;20208;-73
2022/11/19 10:35:54;;;;;;;9.13;7.53;;;11.80;46.90;;;;;;4992443;28;20243;-70
2022/11/19 10:38:26;;;;;;;9.10;8.07;;;11.40;54.00;;;;;;4994470;28;20586;-71
2022/11/19 10:40:57;;;;;;;10.40;8.50;;;12.90;53.20;;;;;;4982133;28;20211;-71
2022/11/19 10:43:30;;;;;;;8.73;7.20;;;13.50;48.00;;;;;;4993650;28;20218;-72
2022/11/19 10:45:59;;;;;;;12.77;8.17;;;12.80;46.70;;;;;;4994495;28;20204;-73
2022/11/19 10:48:38;;;;;;;8.90;7.70;;;11.80;46.90;;;;;;4991105;28;20588;-71
2022/11/19 10:51:12;;;;;;;9.30;7.37;;;10.60;48.10;;;;;;4992234;28;20208;-72
2022/11/19 10:53:40;;;;;;;7.40;6.67;;;9.40;50.10;;;;;;4989651;28;20214;-72
2022/11/19 10:56:12;;;;;;;7.77;6.97;;;8.40;51.90;;;;;;4993032;28;20219;-74
2022/11/19 10:58:44;;;;;;;9.50;8.33;;;7.60;53.40;;;;;;4990040;28;20207;-72
2022/11/19 11:01:16;;;;;;;10.03;8.17;;;6.90;54.90;;;;;;4989931;28;20236;-73
2022/11/19 11:03:47;;;;;;;10.40;8.20;;;6.40;56.60;;;;;;4993274;28;20208;-70
2022/11/19 11:06:14;;;;;;;10.43;8.20;;;5.80;57.30;;;;;;4995253;28;20216;-73
2022/11/19 11:08:49;;;;;;;10.80;7.73;;;5.40;58.30;;;;;;4989970;28;20228;-73
2022/11/19 11:11:23;;;;;;;11.47;8.07;;;5.00;59.20;;;;;;4995372;28;20543;-74
2022/11/19 11:16:44;;;;;;;11.23;7.53;;;4.20;61.00;;;;;;4994681;28;20215;-73
2022/11/19 11:19:17;;;;;;;10.90;8.70;;;3.80;62.80;;;;;;4992928;28;20441;-74
2022/11/19 11:21:45;;;;;;;10.90;8.30;;;3.50;64.20;;;;;;4993865;28;20308;-68
2022/11/19 11:24:13;;;;;;;11.30;8.70;;;3.20;65.60;;;;;;4995030;28;20243;-73
2022/11/19 11:26:42;;;;;;;11.40;8.67;;;3.00;67.10;;;;;;4990507;28;20204;-76
2022/11/19 11:32:26;;;;;;;11.97;9.10;;;2.90;68.30;;;;;;5090849;27;20565;-75
2022/11/19 11:34:53;;;;;;;12.33;8.30;;;2.70;70.70;;;;;;5098119;28;20291;-75
2022/11/19 11:37:20;;;;;;;11.87;9.03;;;2.50;72.60;;;;;;5084677;28;20276;-74
2022/11/19 11:39:54;;;;;;;12.57;8.97;;;2.40;74.50;;;;;;5089179;28;20216;-74
2022/11/19 11:42:25;;;;;;;12.63;8.80;;;2.20;75.20;;;;;;5102407;28;20211;-73
2022/11/19 11:44:54;;;;;;;12.17;9.13;;;2.00;76.20;;;;;;5090673;28;20239;-73
2022/11/19 11:47:28;;;;;;;12.53;9.23;;;1.80;77.40;;;;;;5089526;28;20390;-76
2022/11/19 11:50:06;;;;;;;11.83;8.80;;;1.70;78.50;;;;;;5079420;28;20208;-75
2022/11/19 11:52:39;;;;;;;13.53;9.77;;;1.60;80.10;;;;;;5082229;28;20730;-75
2022/11/19 11:55:08;;;;;;;12.17;8.53;;;1.50;81.50;;;;;;5080195;28;20207;-76
2022/11/19 11:57:36;;;;;;;11.43;7.50;;;1.50;82.50;;;;;;5092934;28;20212;-74
2022/11/19 12:00:25;;;;;;;10.27;7.13;;;1.40;82.90;;;;;;5075426;28;20228;-74
2022/11/19 12:03:01;;;;;;;9.90;6.70;;;1.30;83.40;;;;;;5078041;28;20209;-74
2022/11/19 12:05:31;;;;;;;8.57;5.70;;;1.30;84.80;;;;;;5080937;28;20200;-74
2022/11/19 12:08:04;;;;;;;10.03;7.17;;;1.30;85.50;;;;;;5073231;28;20208;-75
2022/11/19 12:10:41;;;;;;;10.40;7.00;;;1.30;85.30;;;;;;5085717;28;20220;-75
2022/11/19 12:13:41;;;;;;;9.67;7.00;;;1.40;85.50;;;;;;5064793;28;20204;-76
2022/11/19 12:16:14;;;;;;;9.13;6.90;;;1.30;85.30;;;;;;5079045;28;20237;-75
2022/11/19 12:18:51;;;;;;;10.23;7.37;;;1.20;85.70;;;;;;5072809;28;20197;-75
2022/11/19 12:21:32;;;;;;;10.00;7.60;;;1.30;85.70;;;;;;5070758;28;20209;-73
2022/11/19 12:24:17;;;;;;;11.90;6.60;;;1.20;85.60;;;;;;5074147;28;20228;-76
2022/11/19 12:26:50;;;;;;;10.20;6.90;;;1.10;86.10;;;;;;5073923;28;20283;-74
2022/11/19 12:29:25;;;;;;;10.47;7.03;;;1.00;86.80;;;;;;5083758;28;20201;-73
2022/11/19 12:32:12;;;;;;;9.20;7.17;;;1.00;88.00;;;;;;5071778;28;20244;-74
2022/11/19 12:35:29;;;;;;;10.50;6.97;;;0.90;88.10;;;;;;5067567;28;20193;-73
2022/11/19 12:38:18;;;;;;;10.90;7.50;;;0.80;88.10;;;;;;5034966;28;20293;-75
2022/11/19 12:40:53;;;;;;;11.17;7.27;;;0.80;88.90;;;;;;5065854;28;20197;-74
2022/11/19 12:43:37;;;;;;;10.67;7.20;;;0.60;89.20;;;;;;5059708;28;20209;-75
2022/11/19 12:46:16;;;;;;;10.63;6.83;;;0.60;90.00;;;;;;5068181;28;20228;-73
2022/11/19 12:49:00;;;;;;;9.83;6.93;;;0.60;90.50;;;;;;5055288;28;20213;-73
2022/11/19 12:51:44;;;;;;;11.00;7.80;;;0.50;90.50;;;;;;5055040;28;20222;-74
2022/11/19 12:54:28;;;;;;;11.73;7.57;;;0.50;90.90;;;;;;5059437;28;20576;-73
2022/11/19 12:57:08;;;;;;;10.47;7.27;;;0.50;91.20;;;;;;5054295;28;20206;-75
2022/11/19 12:59:51;;;;;;;12.07;7.30;;;0.50;91.40;;;;;;5054029;28;20431;-75
2022/11/19 13:02:22;;;;;;;11.43;8.10;;;0.50;91.20;;;;;;5065593;28;20760;-69
2022/11/19 13:04:54;;;;;;;10.60;7.37;;;0.50;91.40;;;;;;5067366;28;20253;-69
2022/11/19 13:07:25;;;;;;;9.97;7.10;;;0.40;91.70;;;;;;5067151;28;20252;-73
2022/11/19 13:09:59;;;;;;;13.37;7.60;;;0.40;92.00;;;;;;5070601;28;20208;-74
2022/11/19 13:12:31;;;;;;;10.37;6.97;;;0.50;92.30;;;;;;5055911;28;20216;-76
2022/11/19 13:15:02;;;;;;;12.83;8.50;;;0.50;92.40;;;;;;5058102;28;20220;-73
2022/11/19 13:17:33;;;;;;;9.40;7.27;;;0.50;92.60;;;;;;5064676;28;21042;-74
2022/11/19 13:20:04;;;;;;;9.87;6.53;;;0.50;92.70;;;;;;5059415;28;20810;-73
2022/11/19 13:22:35;;;;;;;9.40;7.00;;;0.50;92.90;;;;;;5062288;28;20208;-72